createdAt,value
2023-02-19T00:01:19.855Z,19.65
2023-02-19T00:03:21.171Z,19.14
2023-02-19T00:05:22.486Z,19.38
2023-02-19T00:07:23.779Z,19.82
2023-02-19T00:09:25.061Z,20.38
2023-02-19T00:11:26.406Z,20.81
2023-02-19T00:13:27.740Z,21.03
2023-02-19T00:15:30.565Z,21.15
2023-02-19T00:17:31.897Z,21.24
2023-02-19T00:19:33.203Z,21.33
2023-02-19T00:21:34.504Z,21.38
2023-02-19T00:23:35.828Z,21.46
2023-02-19T00:25:37.776Z,21.53
2023-02-19T00:27:39.082Z,21.59
2023-02-19T00:29:40.424Z,21.64
2023-02-19T00:31:41.867Z,21.66
2023-02-19T00:33:43.247Z,21.68
2023-02-19T00:35:44.559Z,21.69
2023-02-19T00:37:45.937Z,21.70
2023-02-19T00:39:47.235Z,21.72
2023-02-19T00:41:48.577Z,21.71
2023-02-19T00:43:49.933Z,21.72
2023-02-19T00:45:51.291Z,21.74
2023-02-19T00:47:52.580Z,21.74
2023-02-19T00:49:53.944Z,21.74
2023-02-19T00:51:55.292Z,21.72
2023-02-19T00:53:56.638Z,21.70
2023-02-19T00:55:57.947Z,21.68
2023-02-19T00:57:59.238Z,21.64
2023-02-19T01:00:00.692Z,21.62
2023-02-19T01:02:01.994Z,21.61
2023-02-19T01:04:06.191Z,21.58
2023-02-19T01:06:07.853Z,21.53
2023-02-19T01:08:09.148Z,21.49
2023-02-19T01:10:10.463Z,21.48
2023-02-19T01:12:11.742Z,21.45
2023-02-19T01:14:13.069Z,21.39
2023-02-19T01:16:14.430Z,21.37
2023-02-19T01:18:15.724Z,21.33
2023-02-19T01:20:17.054Z,21.30
2023-02-19T01:22:18.342Z,21.30
2023-02-19T01:24:19.685Z,21.28
2023-02-19T01:26:20.981Z,21.27
2023-02-19T01:28:23.291Z,21.23
2023-02-19T01:30:24.903Z,21.22
2023-02-19T01:32:26.242Z,21.21
2023-02-19T01:34:30.140Z,21.19
2023-02-19T01:36:31.524Z,21.18
2023-02-19T01:38:32.839Z,21.17
2023-02-19T01:40:34.145Z,21.16
2023-02-19T01:42:35.476Z,21.14
2023-02-19T01:44:36.774Z,21.13
2023-02-19T01:46:38.269Z,21.11
2023-02-19T01:48:39.624Z,21.10
2023-02-19T01:50:40.936Z,21.10
2023-02-19T01:52:42.231Z,21.10
2023-02-19T01:54:43.523Z,21.09
2023-02-19T01:56:44.899Z,21.10
2023-02-19T01:58:46.199Z,20.83
2023-02-19T02:00:47.547Z,21.13
2023-02-19T02:02:49.127Z,21.16
2023-02-19T02:04:50.426Z,21.17
2023-02-19T02:06:51.741Z,21.21
2023-02-19T02:09:12.019Z,21.24
2023-02-19T02:11:13.702Z,21.33
2023-02-19T02:13:15.049Z,21.40
2023-02-19T02:15:16.514Z,21.44
2023-02-19T02:17:17.814Z,21.47
2023-02-19T02:19:19.116Z,21.46
2023-02-19T02:21:20.421Z,21.48
2023-02-19T02:23:21.732Z,21.50
2023-02-19T02:25:23.024Z,21.50
2023-02-19T02:27:24.357Z,21.52
2023-02-19T02:29:25.648Z,21.50
2023-02-19T02:31:27.058Z,21.51
2023-02-19T02:33:28.503Z,21.53
2023-02-19T02:35:29.854Z,21.50
2023-02-19T02:37:31.161Z,21.51
2023-02-19T02:39:32.502Z,21.51
2023-02-19T02:41:33.841Z,21.50
2023-02-19T02:43:35.160Z,21.50
2023-02-19T02:45:36.853Z,21.50
2023-02-19T02:47:41.227Z,21.49
2023-02-19T02:50:02.476Z,21.44
2023-02-19T02:52:23.786Z,21.44
2023-02-19T02:54:43.864Z,21.44
2023-02-19T02:56:46.077Z,21.44
2023-02-19T02:58:47.374Z,21.49
2023-02-19T03:01:07.357Z,21.47
2023-02-19T03:03:08.790Z,21.47
2023-02-19T03:05:29.038Z,21.46
2023-02-19T03:07:30.332Z,21.52
2023-02-19T03:09:31.627Z,21.54
2023-02-19T03:11:51.407Z,21.54
2023-02-19T03:14:11.326Z,21.53
2023-02-19T03:16:31.261Z,21.52
2023-02-19T03:18:51.349Z,21.53
2023-02-19T03:20:52.702Z,21.55
2023-02-19T03:22:54.083Z,21.53
2023-02-19T03:25:14.026Z,21.55
2023-02-19T03:27:15.396Z,21.61
2023-02-19T03:29:26.207Z,21.59
2023-02-19T03:31:27.730Z,21.53
2023-02-19T03:33:29.105Z,21.50
2023-02-19T03:35:30.406Z,21.48
2023-02-19T03:37:31.709Z,21.48
2023-02-19T03:39:33.023Z,21.50
2023-02-19T03:41:34.319Z,21.51
2023-02-19T03:43:35.667Z,21.54
2023-02-19T03:45:36.994Z,21.57
2023-02-19T03:47:38.297Z,21.57
2023-02-19T03:49:39.585Z,21.58
2023-02-19T03:51:40.883Z,21.58
2023-02-19T03:53:42.227Z,21.55
2023-02-19T03:55:43.516Z,21.55
2023-02-19T03:57:44.812Z,21.55
2023-02-19T03:59:46.148Z,21.54
2023-02-19T04:01:47.459Z,21.57
2023-02-19T04:03:48.743Z,21.56
2023-02-19T04:05:50.034Z,21.55
2023-02-19T04:07:51.363Z,21.53
2023-02-19T04:09:52.655Z,21.53
2023-02-19T04:11:53.996Z,21.52
2023-02-19T04:13:55.598Z,21.49
2023-02-19T04:15:56.924Z,21.47
2023-02-19T04:17:58.236Z,21.46
2023-02-19T04:19:59.605Z,21.45
2023-02-19T04:22:00.961Z,21.44
2023-02-19T04:24:02.272Z,21.45
2023-02-19T04:26:03.607Z,21.43
2023-02-19T04:28:04.926Z,21.44
2023-02-19T04:30:06.380Z,21.46
2023-02-19T04:32:07.752Z,21.44
2023-02-19T04:34:09.160Z,21.44
2023-02-19T04:36:10.988Z,21.46
2023-02-19T04:38:13.765Z,21.46
2023-02-19T04:40:15.074Z,21.46
2023-02-19T04:42:16.416Z,21.46
2023-02-19T04:44:17.808Z,21.46
2023-02-19T04:46:19.164Z,21.45
2023-02-19T04:48:20.480Z,21.48
2023-02-19T04:50:23.190Z,21.58
2023-02-19T04:52:24.496Z,21.66
2023-02-19T04:54:25.789Z,21.67
2023-02-19T04:56:27.151Z,21.67
2023-02-19T04:58:28.486Z,21.66
2023-02-19T05:00:29.780Z,21.70
2023-02-19T05:02:31.079Z,21.71
2023-02-19T05:04:32.474Z,21.74
2023-02-19T05:06:33.808Z,21.71
2023-02-19T05:08:35.190Z,21.68
2023-02-19T05:10:36.544Z,21.68
2023-02-19T05:12:37.832Z,21.71
2023-02-19T05:14:39.122Z,21.58
2023-02-19T05:16:40.457Z,21.42
2023-02-19T05:18:41.798Z,21.45
2023-02-19T05:20:43.092Z,21.50
2023-02-19T05:22:44.391Z,21.52
2023-02-19T05:24:45.687Z,21.54
2023-02-19T05:26:48.296Z,21.57
2023-02-19T05:28:49.596Z,21.55
2023-02-19T05:30:51.007Z,21.52
2023-02-19T05:32:52.353Z,21.51
2023-02-19T05:34:53.692Z,21.52
2023-02-19T05:36:54.983Z,21.55
2023-02-19T05:38:56.337Z,21.53
2023-02-19T05:40:57.672Z,21.52
2023-02-19T05:42:58.996Z,21.51
2023-02-19T05:45:00.338Z,21.49
2023-02-19T05:47:02.259Z,21.48
2023-02-19T05:49:04.306Z,21.49
2023-02-19T05:51:05.675Z,21.48
2023-02-19T05:53:07.018Z,21.47
2023-02-19T05:55:08.372Z,21.45
2023-02-19T05:57:09.664Z,21.48
2023-02-19T05:59:10.959Z,21.49
2023-02-19T06:01:12.373Z,21.49
2023-02-19T06:03:13.717Z,21.51
2023-02-19T06:05:15.081Z,21.49
2023-02-19T06:07:16.413Z,21.49
2023-02-19T06:09:17.720Z,21.51
2023-02-19T06:11:19.136Z,21.53
2023-02-19T06:13:20.440Z,21.54
2023-02-19T06:15:21.906Z,21.52
2023-02-19T06:17:23.235Z,21.53
2023-02-19T06:19:24.543Z,21.54
2023-02-19T06:21:25.839Z,21.54
2023-02-19T06:23:27.176Z,21.55
2023-02-19T06:25:28.498Z,21.57
2023-02-19T06:27:29.842Z,21.57
2023-02-19T06:29:32.521Z,21.59
2023-02-19T06:31:33.887Z,21.59
2023-02-19T06:33:35.345Z,21.61
2023-02-19T06:35:36.652Z,21.60
2023-02-19T06:37:37.986Z,21.61
2023-02-19T06:39:39.286Z,21.62
2023-02-19T06:41:40.590Z,21.60
2023-02-19T06:43:42.259Z,21.55
2023-02-19T06:45:43.721Z,21.54
2023-02-19T06:47:45.412Z,21.52
2023-02-19T06:49:46.708Z,21.48
2023-02-19T06:51:48.046Z,21.39
2023-02-19T06:53:49.391Z,21.32
2023-02-19T06:55:50.776Z,21.26
2023-02-19T06:57:52.064Z,21.19
2023-02-19T06:59:53.363Z,21.16
2023-02-19T07:01:54.704Z,21.15
2023-02-19T07:03:56.063Z,21.14
2023-02-19T07:05:57.428Z,21.14
2023-02-19T07:07:58.743Z,21.15
2023-02-19T07:10:00.130Z,21.17
2023-02-19T07:12:02.215Z,21.19
2023-02-19T07:14:03.524Z,21.20
2023-02-19T07:16:04.871Z,21.24
2023-02-19T07:18:10.325Z,21.26
2023-02-19T07:20:11.722Z,21.28
2023-02-19T07:22:13.016Z,21.28
2023-02-19T07:24:14.433Z,21.31
2023-02-19T07:26:15.772Z,21.35
2023-02-19T07:28:17.191Z,21.37
2023-02-19T07:30:18.660Z,21.44
2023-02-19T07:32:20.059Z,21.52
2023-02-19T07:34:21.399Z,21.55
2023-02-19T07:36:22.758Z,21.57
2023-02-19T07:38:24.099Z,21.58
2023-02-19T07:40:25.426Z,21.59
2023-02-19T07:42:26.728Z,21.66
2023-02-19T07:44:28.028Z,21.68
2023-02-19T07:46:30.039Z,21.71
2023-02-19T07:48:31.399Z,21.70
2023-02-19T07:50:32.699Z,21.70
2023-02-19T07:52:34.014Z,21.74
2023-02-19T07:54:35.396Z,21.77
2023-02-19T07:56:36.700Z,21.76
2023-02-19T07:58:38.048Z,21.76
2023-02-19T08:00:39.434Z,21.73
2023-02-19T08:02:59.460Z,21.82
2023-02-19T08:05:00.808Z,22.08
2023-02-19T08:07:02.212Z,21.79
2023-02-19T08:09:03.507Z,21.69
2023-02-19T08:11:23.220Z,21.63
2023-02-19T08:13:25.384Z,21.48
2023-02-19T08:15:26.692Z,21.40
2023-02-19T08:17:30.201Z,21.33
2023-02-19T08:19:34.311Z,21.31
2023-02-19T08:21:35.651Z,21.26
2023-02-19T08:23:36.965Z,21.25
2023-02-19T08:25:38.273Z,21.21
2023-02-19T08:27:39.566Z,21.19
2023-02-19T08:29:41.100Z,21.17
2023-02-19T08:31:42.591Z,21.18
2023-02-19T08:33:44.063Z,21.17
2023-02-19T08:35:45.395Z,21.17
2023-02-19T08:37:46.792Z,21.15
2023-02-19T08:39:48.103Z,21.16
2023-02-19T08:41:49.571Z,21.16
2023-02-19T08:43:51.538Z,21.18
2023-02-19T08:45:52.850Z,21.19
2023-02-19T08:47:54.149Z,21.25
2023-02-19T08:49:55.464Z,21.31
2023-02-19T08:51:56.779Z,21.39
2023-02-19T08:53:58.090Z,21.46
2023-02-19T08:55:59.428Z,21.50
2023-02-19T08:58:00.732Z,21.55
2023-02-19T09:00:02.184Z,21.61
2023-02-19T09:02:03.484Z,21.64
2023-02-19T09:04:04.781Z,21.63
2023-02-19T09:06:06.116Z,21.64
2023-02-19T09:08:07.476Z,21.64
2023-02-19T09:10:08.771Z,21.62
2023-02-19T09:12:10.074Z,21.63
2023-02-19T09:14:11.384Z,21.59
2023-02-19T09:16:12.794Z,21.53
2023-02-19T09:18:14.219Z,21.49
2023-02-19T09:20:15.520Z,21.46
2023-02-19T09:22:17.063Z,21.44
2023-02-19T09:24:18.364Z,21.40
2023-02-19T09:26:19.665Z,21.38
2023-02-19T09:28:22.027Z,21.32
2023-02-19T09:30:23.492Z,21.27
2023-02-19T09:32:24.868Z,21.23
2023-02-19T09:34:26.159Z,21.20
2023-02-19T09:36:30.375Z,21.18
2023-02-19T09:38:31.745Z,21.16
2023-02-19T09:40:33.035Z,21.13
2023-02-19T09:42:34.349Z,21.11
2023-02-19T09:44:35.683Z,21.08
2023-02-19T09:46:36.988Z,21.08
2023-02-19T09:48:38.379Z,21.06
2023-02-19T09:50:39.811Z,20.00
2023-02-19T09:52:41.157Z,18.38
2023-02-19T09:54:45.372Z,17.74
2023-02-19T09:56:46.729Z,17.29
2023-02-19T09:58:48.556Z,18.70
2023-02-19T10:00:49.890Z,21.22
2023-02-19T10:02:51.196Z,21.82
2023-02-19T10:04:52.557Z,22.28
2023-02-19T10:06:54.135Z,22.52
2023-02-19T10:08:55.478Z,22.69
2023-02-19T10:10:56.771Z,22.71
2023-02-19T10:12:58.108Z,22.90
2023-02-19T10:14:59.428Z,23.00
2023-02-19T10:17:00.778Z,22.95
2023-02-19T10:19:02.274Z,22.66
2023-02-19T10:21:03.575Z,23.02
2023-02-19T10:23:04.866Z,23.05
2023-02-19T10:25:09.135Z,23.05
2023-02-19T10:27:10.423Z,23.02
2023-02-19T10:29:11.750Z,23.02
2023-02-19T10:31:13.353Z,22.79
2023-02-19T10:33:14.912Z,22.97
2023-02-19T10:35:16.231Z,23.14
2023-02-19T10:37:17.534Z,22.97
2023-02-19T10:39:18.834Z,22.48
2023-02-19T10:41:25.987Z,22.20
2023-02-19T10:43:34.002Z,22.06
2023-02-19T10:45:35.363Z,22.00
2023-02-19T10:47:36.666Z,21.93
2023-02-19T10:49:37.960Z,21.86
2023-02-19T10:51:39.317Z,21.80
2023-02-19T10:53:40.646Z,21.75
2023-02-19T10:55:41.945Z,21.69
2023-02-19T10:57:43.329Z,21.65
2023-02-19T10:59:44.656Z,21.62
2023-02-19T11:01:46.017Z,21.58
2023-02-19T11:03:47.391Z,21.55
2023-02-19T11:05:48.735Z,21.54
2023-02-19T11:07:50.124Z,21.54
2023-02-19T11:09:53.715Z,21.54
2023-02-19T11:11:55.044Z,21.51
2023-02-19T11:13:56.387Z,21.47
2023-02-19T11:15:58.757Z,21.43
2023-02-19T11:18:02.995Z,21.42
2023-02-19T11:20:04.789Z,21.39
2023-02-19T11:22:06.078Z,21.38
2023-02-19T11:24:07.381Z,21.37
2023-02-19T11:26:08.721Z,21.36
2023-02-19T11:28:10.068Z,21.35
2023-02-19T11:30:11.365Z,21.33
2023-02-19T11:32:12.803Z,21.30
2023-02-19T11:34:14.139Z,21.31
2023-02-19T11:36:15.451Z,21.35
2023-02-19T11:38:16.818Z,21.32
2023-02-19T11:40:18.154Z,21.32
2023-02-19T11:42:19.512Z,21.34
2023-02-19T11:44:20.823Z,21.38
2023-02-19T11:46:22.280Z,21.42
2023-02-19T11:48:23.756Z,21.48
2023-02-19T11:50:25.044Z,21.55
2023-02-19T11:52:26.892Z,21.61
2023-02-19T11:54:28.295Z,21.79
2023-02-19T11:56:33.786Z,21.86
2023-02-19T11:58:35.093Z,21.96
2023-02-19T12:00:36.429Z,22.00
2023-02-19T12:02:37.873Z,22.06
2023-02-19T12:04:39.210Z,22.12
2023-02-19T12:06:40.502Z,22.11
2023-02-19T12:08:41.903Z,22.08
2023-02-19T12:10:43.301Z,21.97
2023-02-19T12:12:53.932Z,21.89
2023-02-19T12:14:55.240Z,21.81
2023-02-19T12:16:56.523Z,21.75
2023-02-19T12:18:57.807Z,21.69
2023-02-19T12:20:59.111Z,21.65
2023-02-19T12:23:00.423Z,21.62
2023-02-19T12:25:01.752Z,21.55
2023-02-19T12:27:03.086Z,21.50
2023-02-19T12:29:04.418Z,21.45
2023-02-19T12:31:06.285Z,21.49
2023-02-19T12:33:07.721Z,21.66
2023-02-19T12:35:09.083Z,21.68
2023-02-19T12:37:10.560Z,21.71
2023-02-19T12:39:11.849Z,21.72
2023-02-19T12:41:15.935Z,21.74
2023-02-19T12:43:18.022Z,21.72
2023-02-19T12:45:20.227Z,21.63
2023-02-19T12:47:24.304Z,21.63
2023-02-19T12:49:25.604Z,21.63
2023-02-19T12:51:26.947Z,21.67
2023-02-19T12:53:28.243Z,21.75
2023-02-19T12:55:32.650Z,21.69
2023-02-19T12:57:33.974Z,21.77
2023-02-19T12:59:35.274Z,21.82
2023-02-19T13:01:41.744Z,21.85
2023-02-19T13:03:43.086Z,21.84
2023-02-19T13:05:44.380Z,21.89
2023-02-19T13:07:45.711Z,21.83
2023-02-19T13:09:47.009Z,22.00
2023-02-19T13:11:48.293Z,22.23
2023-02-19T13:13:49.626Z,22.50
2023-02-19T13:15:50.916Z,22.67
2023-02-19T13:17:52.261Z,22.76
2023-02-19T13:19:53.583Z,22.77
2023-02-19T13:22:13.622Z,22.70
2023-02-19T13:24:14.925Z,22.87
2023-02-19T13:26:16.235Z,22.63
2023-02-19T13:28:17.528Z,22.59
2023-02-19T13:30:18.869Z,22.44
2023-02-19T13:32:20.186Z,22.30
2023-02-19T13:34:21.661Z,22.26
2023-02-19T13:36:23.027Z,22.35
2023-02-19T13:38:24.600Z,22.48
2023-02-19T13:40:25.927Z,22.49
2023-02-19T13:42:27.274Z,22.40
2023-02-19T13:44:28.607Z,22.20
2023-02-19T13:46:29.962Z,22.06
2023-02-19T13:48:31.298Z,22.12
2023-02-19T13:50:32.596Z,22.18
2023-02-19T13:52:33.949Z,22.09
2023-02-19T13:54:39.926Z,22.00
2023-02-19T13:56:41.284Z,22.16
2023-02-19T13:58:42.619Z,22.16
2023-02-19T14:00:43.931Z,22.17
2023-02-19T14:02:45.265Z,22.31
2023-02-19T14:04:48.486Z,22.37
2023-02-19T14:06:49.793Z,22.39
2023-02-19T14:08:51.346Z,22.31
2023-02-19T14:10:52.942Z,22.16
2023-02-19T14:12:54.273Z,22.10
2023-02-19T14:14:55.613Z,22.09
2023-02-19T14:16:57.048Z,22.04
2023-02-19T14:18:58.374Z,21.97
2023-02-19T14:21:02.411Z,21.90
2023-02-19T14:23:03.815Z,21.85
2023-02-19T14:25:05.152Z,21.76
2023-02-19T14:27:06.438Z,21.72
2023-02-19T14:29:07.756Z,21.70
2023-02-19T14:31:09.122Z,21.65
2023-02-19T14:33:11.372Z,21.62
2023-02-19T14:35:12.834Z,21.65
2023-02-19T14:37:15.305Z,21.65
2023-02-19T14:39:16.698Z,21.68
2023-02-19T14:41:20.664Z,21.72
2023-02-19T14:43:21.981Z,21.75
2023-02-19T14:45:29.254Z,21.79
2023-02-19T14:47:35.140Z,21.80
2023-02-19T14:49:36.443Z,21.78
2023-02-19T14:51:37.820Z,21.81
2023-02-19T14:53:39.131Z,21.87
2023-02-19T14:55:40.434Z,21.92
2023-02-19T14:57:42.028Z,21.96
2023-02-19T14:59:43.319Z,22.00
2023-02-19T15:01:44.688Z,22.01
2023-02-19T15:03:46.012Z,22.03
2023-02-19T15:05:49.161Z,22.01
2023-02-19T15:07:50.462Z,22.01
2023-02-19T15:09:51.808Z,21.99
2023-02-19T15:11:53.144Z,21.96
2023-02-19T15:13:54.479Z,21.95
2023-02-19T15:15:55.788Z,21.98
2023-02-19T15:17:57.158Z,21.99
2023-02-19T15:19:58.476Z,22.05
2023-02-19T15:21:59.824Z,21.95
2023-02-19T15:24:02.172Z,21.83
2023-02-19T15:26:06.520Z,21.75
2023-02-19T15:28:10.861Z,21.67
2023-02-19T15:30:12.235Z,21.54
2023-02-19T15:32:13.567Z,21.50
2023-02-19T15:34:14.911Z,21.49
2023-02-19T15:36:16.220Z,21.47
2023-02-19T15:38:17.677Z,21.46
2023-02-19T15:40:19.035Z,22.09
2023-02-19T15:42:20.380Z,22.19
2023-02-19T15:44:21.676Z,21.87
2023-02-19T15:46:23.044Z,21.66
2023-02-19T15:48:24.408Z,21.72
2023-02-19T15:50:25.820Z,23.03
2023-02-19T15:52:27.135Z,23.02
2023-02-19T15:54:28.746Z,22.25
2023-02-19T15:56:30.482Z,21.85
2023-02-19T15:58:31.770Z,21.68
2023-02-19T16:00:33.159Z,21.62
2023-02-19T16:02:34.534Z,21.55
2023-02-19T16:04:35.840Z,21.54
2023-02-19T16:06:37.178Z,21.50
2023-02-19T16:08:38.564Z,21.54
2023-02-19T16:10:42.797Z,21.60
2023-02-19T16:12:44.132Z,21.64
2023-02-19T16:14:45.423Z,21.68
2023-02-19T16:16:46.757Z,21.71
2023-02-19T16:18:48.167Z,21.76
2023-02-19T16:20:52.415Z,21.81
2023-02-19T16:22:53.716Z,21.83
2023-02-19T16:24:54.996Z,21.87
2023-02-19T16:26:59.200Z,21.90
2023-02-19T16:29:00.494Z,21.91
2023-02-19T16:31:01.916Z,22.00
2023-02-19T16:33:03.239Z,22.62
2023-02-19T16:35:07.560Z,23.30
2023-02-19T16:37:11.845Z,23.83
2023-02-19T16:39:13.142Z,23.68
2023-02-19T16:41:16.335Z,23.44
2023-02-19T16:43:18.626Z,23.08
2023-02-19T16:45:19.961Z,23.03
2023-02-19T16:47:21.359Z,22.57
2023-02-19T16:49:22.656Z,22.38
2023-02-19T16:51:23.958Z,22.60
2023-02-19T16:53:25.531Z,23.32
2023-02-19T16:55:26.989Z,23.75
2023-02-19T16:57:29.198Z,23.88
2023-02-19T16:59:30.493Z,24.01
2023-02-19T17:01:31.809Z,23.75
2023-02-19T17:03:33.238Z,23.98
2023-02-19T17:05:34.570Z,23.60
2023-02-19T17:07:35.859Z,23.66
2023-02-19T17:09:37.162Z,23.23
2023-02-19T17:11:38.465Z,23.40
2023-02-19T17:13:39.764Z,23.16
2023-02-19T17:15:41.166Z,22.39
2023-02-19T17:17:45.267Z,22.03
2023-02-19T17:19:46.567Z,21.70
2023-02-19T17:21:47.964Z,21.57
2023-02-19T17:23:49.256Z,21.53
2023-02-19T17:25:50.579Z,21.48
2023-02-19T17:27:51.952Z,21.46
2023-02-19T17:29:53.355Z,21.47
2023-02-19T17:31:54.844Z,22.24
2023-02-19T17:33:59.236Z,22.63
2023-02-19T17:36:01.110Z,23.00
2023-02-19T17:38:09.381Z,23.03
2023-02-19T17:40:10.728Z,23.03
2023-02-19T17:42:12.067Z,23.09
2023-02-19T17:44:13.359Z,23.16
2023-02-19T17:46:15.177Z,23.15
2023-02-19T17:48:16.627Z,23.30
2023-02-19T17:50:18.003Z,23.28
2023-02-19T17:52:19.413Z,23.18
2023-02-19T17:54:20.789Z,23.60
2023-02-19T17:56:22.124Z,23.36
2023-02-19T17:58:26.659Z,23.22
2023-02-19T18:00:28.021Z,23.13
2023-02-19T18:02:29.349Z,23.11
2023-02-19T18:04:30.721Z,23.08
2023-02-19T18:06:32.079Z,23.12
2023-02-19T18:08:33.404Z,22.52
2023-02-19T18:10:35.970Z,22.87
2023-02-19T18:12:40.188Z,22.95
2023-02-19T18:14:44.491Z,23.20
2023-02-19T18:16:50.347Z,23.29
2023-02-19T18:18:51.983Z,23.02
2023-02-19T18:20:53.298Z,22.99
2023-02-19T18:22:54.593Z,23.11
2023-02-19T18:24:55.893Z,22.89
2023-02-19T18:26:57.192Z,21.99
2023-02-19T18:28:58.518Z,21.66
2023-02-19T18:30:59.919Z,21.86
2023-02-19T18:33:02.224Z,22.05
2023-02-19T18:35:09.454Z,22.50
2023-02-19T18:37:10.894Z,22.72
2023-02-19T18:39:13.172Z,22.27
2023-02-19T18:41:19.822Z,21.71
2023-02-19T18:43:21.435Z,21.86
2023-02-19T18:45:22.730Z,22.34
2023-02-19T18:47:25.399Z,22.75
2023-02-19T18:49:26.839Z,22.87
2023-02-19T18:51:28.177Z,21.96
2023-02-19T18:53:31.281Z,22.81
2023-02-19T18:55:32.747Z,22.82
2023-02-19T18:57:34.050Z,22.83
2023-02-19T18:59:35.352Z,22.88
2023-02-19T19:01:36.718Z,22.84
2023-02-19T19:03:38.128Z,22.87
2023-02-19T19:05:39.447Z,23.30
2023-02-19T19:07:40.758Z,23.07
2023-02-19T19:09:42.047Z,22.99
2023-02-19T19:11:47.063Z,22.97
2023-02-19T19:13:48.368Z,22.95
2023-02-19T19:15:49.682Z,23.28
2023-02-19T19:17:51.219Z,23.69
2023-02-19T19:19:55.240Z,23.30
2023-02-19T19:21:56.555Z,22.70
2023-02-19T19:24:00.657Z,22.34
2023-02-19T19:26:01.998Z,22.22
2023-02-19T19:28:03.479Z,22.16
2023-02-19T19:30:04.920Z,22.10
2023-02-19T19:32:08.714Z,22.07
2023-02-19T19:34:10.244Z,22.04
2023-02-19T19:36:11.608Z,22.02
2023-02-19T19:38:15.843Z,22.00
2023-02-19T19:40:17.200Z,22.00
2023-02-19T19:42:30.693Z,21.98
2023-02-19T19:44:32.012Z,21.97
2023-02-19T19:46:33.639Z,21.72
2023-02-19T19:48:34.979Z,21.82
2023-02-19T19:50:36.275Z,21.85
2023-02-19T19:52:40.617Z,21.97
2023-02-19T19:54:42.380Z,22.24
2023-02-19T19:56:43.807Z,22.71
2023-02-19T19:58:45.124Z,22.64
2023-02-19T20:00:46.410Z,22.69
2023-02-19T20:02:50.526Z,22.79
2023-02-19T20:04:51.878Z,22.90
2023-02-19T20:06:53.244Z,23.35
2023-02-19T20:08:54.590Z,23.09
2023-02-19T20:10:55.919Z,23.32
2023-02-19T20:12:57.255Z,23.24
2023-02-19T20:14:58.619Z,23.08
2023-02-19T20:17:11.877Z,23.08
2023-02-19T20:19:13.214Z,23.04
2023-02-19T20:21:14.803Z,23.01
2023-02-19T20:23:16.252Z,22.95
2023-02-19T20:25:17.591Z,22.88
2023-02-19T20:27:18.892Z,22.93
2023-02-19T20:29:20.191Z,22.92
2023-02-19T20:31:21.562Z,22.91
2023-02-19T20:33:22.899Z,22.90
2023-02-19T20:35:28.582Z,22.78
2023-02-19T20:37:29.933Z,22.87
2023-02-19T20:39:31.236Z,22.95
2023-02-19T20:41:32.563Z,23.06
2023-02-19T20:43:33.863Z,23.05
2023-02-19T20:45:35.155Z,23.22
2023-02-19T20:47:37.631Z,22.89
2023-02-19T20:49:38.944Z,22.51
2023-02-19T20:51:40.243Z,22.64
2023-02-19T20:53:44.300Z,22.64
2023-02-19T20:55:45.691Z,22.68
2023-02-19T20:57:47.069Z,22.83
2023-02-19T20:59:48.366Z,23.26
2023-02-19T21:01:49.740Z,23.07
2023-02-19T21:03:51.119Z,22.89
2023-02-19T21:05:52.449Z,22.79
2023-02-19T21:07:53.786Z,22.75
2023-02-19T21:09:55.148Z,22.77
2023-02-19T21:11:56.733Z,23.07
2023-02-19T21:14:01.139Z,22.95
2023-02-19T21:16:05.432Z,22.89
2023-02-19T21:18:06.827Z,22.90
2023-02-19T21:20:08.123Z,22.90
2023-02-19T21:22:09.426Z,22.92
2023-02-19T21:24:10.756Z,23.40
2023-02-19T21:26:12.398Z,23.29
2023-02-19T21:28:13.965Z,23.15
2023-02-19T21:30:18.092Z,23.07
2023-02-19T21:32:19.717Z,23.04
2023-02-19T21:34:21.134Z,23.16
2023-02-19T21:36:22.428Z,23.20
2023-02-19T21:38:23.719Z,23.06
2023-02-19T21:40:25.769Z,22.72
2023-02-19T21:42:27.131Z,22.50
2023-02-19T21:44:28.471Z,22.36
2023-02-19T21:46:29.819Z,22.29
2023-02-19T21:48:31.139Z,19.59
2023-02-19T21:50:32.438Z,17.64
2023-02-19T21:52:33.739Z,18.79
2023-02-19T21:54:35.076Z,20.43
2023-02-19T21:56:36.823Z,21.14
2023-02-19T21:58:38.295Z,21.50
2023-02-19T22:00:42.390Z,21.68
2023-02-19T22:02:43.738Z,21.78
2023-02-19T22:04:53.484Z,21.91
2023-02-19T22:06:54.802Z,22.02
2023-02-19T22:08:56.146Z,22.13
2023-02-19T22:10:57.453Z,22.25
2023-02-19T22:12:58.984Z,22.37
2023-02-19T22:15:00.320Z,22.44
2023-02-19T22:17:01.614Z,22.45
2023-02-19T22:19:02.940Z,22.47
2023-02-19T22:21:04.237Z,22.44
2023-02-19T22:23:05.547Z,22.47
2023-02-19T22:25:06.880Z,22.43
2023-02-19T22:27:08.218Z,22.42
2023-02-19T22:29:09.521Z,22.37
2023-02-19T22:31:10.807Z,22.32
2023-02-19T22:33:12.108Z,22.27
2023-02-19T22:35:15.679Z,22.25
2023-02-19T22:37:17.200Z,22.21
2023-02-19T22:39:18.662Z,22.19
2023-02-19T22:41:20.014Z,22.15
2023-02-19T22:43:21.354Z,22.10
2023-02-19T22:45:23.171Z,22.07
2023-02-19T22:47:24.547Z,22.02
2023-02-19T22:49:25.877Z,21.98
2023-02-19T22:51:27.199Z,21.96
2023-02-19T22:53:28.492Z,21.89
2023-02-19T22:55:31.015Z,21.87
2023-02-19T22:57:32.325Z,21.84
2023-02-19T22:59:33.723Z,21.85
2023-02-19T23:01:35.070Z,21.88
2023-02-19T23:03:36.396Z,21.86
2023-02-19T23:05:37.892Z,21.85
2023-02-19T23:07:39.195Z,21.81
2023-02-19T23:09:40.500Z,21.85
2023-02-19T23:11:42.030Z,21.86
2023-02-19T23:13:43.405Z,21.86
2023-02-19T23:15:44.735Z,21.86
2023-02-19T23:17:46.032Z,21.85
2023-02-19T23:19:47.692Z,21.86
2023-02-19T23:21:49.247Z,21.84
2023-02-19T23:23:50.573Z,21.84
2023-02-19T23:25:51.874Z,21.81
2023-02-19T23:27:53.170Z,21.84
2023-02-19T23:29:54.501Z,20.96
2023-02-19T23:31:55.900Z,21.81
2023-02-19T23:33:57.266Z,21.80
2023-02-19T23:35:58.595Z,21.78
2023-02-19T23:38:00.859Z,21.81
2023-02-19T23:40:02.211Z,21.80
2023-02-19T23:42:03.541Z,21.78
2023-02-19T23:44:04.841Z,21.76
2023-02-19T23:46:06.235Z,21.75
2023-02-19T23:48:07.553Z,21.76
2023-02-19T23:50:08.855Z,21.80
2023-02-19T23:52:10.275Z,21.85
2023-02-19T23:54:11.571Z,21.87
2023-02-19T23:56:13.085Z,21.89
2023-02-19T23:58:14.575Z,21.86
